createdAt,value
2018-05-14T00:01:39.861Z,13.00
2018-05-14T00:04:06.495Z,13.00
2018-05-14T00:06:32.762Z,13.00
2018-05-14T00:08:59.896Z,12.90
2018-05-14T00:11:26.144Z,12.80
2018-05-14T00:13:52.873Z,12.90
2018-05-14T00:16:19.171Z,12.90
2018-05-14T00:18:45.626Z,12.90
2018-05-14T00:21:11.913Z,12.80
2018-05-14T00:23:38.146Z,12.80
2018-05-14T00:26:04.414Z,12.80
2018-05-14T00:28:30.666Z,12.90
2018-05-14T00:30:56.978Z,12.80
2018-05-14T00:33:23.217Z,12.90
2018-05-14T00:35:50.394Z,12.90
2018-05-14T00:38:17.429Z,12.90
2018-05-14T00:40:43.682Z,12.80
2018-05-14T00:43:09.919Z,12.80
2018-05-14T00:45:36.506Z,12.90
2018-05-14T00:48:02.763Z,12.90
2018-05-14T00:50:29.025Z,12.90
2018-05-14T00:52:55.610Z,12.90
2018-05-14T00:55:21.855Z,12.90
2018-05-14T00:57:48.138Z,12.90
2018-05-14T01:00:14.382Z,12.90
2018-05-14T01:02:41.090Z,12.80
2018-05-14T01:05:07.335Z,12.70
2018-05-14T01:07:33.598Z,12.80
2018-05-14T01:10:00.141Z,12.80
2018-05-14T01:12:26.412Z,12.80
2018-05-14T01:14:52.659Z,12.80
2018-05-14T01:17:19.938Z,12.70
2018-05-14T01:19:46.186Z,12.70
2018-05-14T01:22:12.958Z,12.70
2018-05-14T01:24:39.254Z,12.80
2018-05-14T01:27:05.842Z,12.80
2018-05-14T01:29:32.098Z,12.80
2018-05-14T01:31:58.818Z,12.80
2018-05-14T01:34:25.096Z,12.80
2018-05-14T01:36:51.815Z,12.70
2018-05-14T01:39:18.070Z,12.70
2018-05-14T01:41:44.313Z,12.70
2018-05-14T01:44:10.578Z,12.70
2018-05-14T01:46:36.809Z,12.70
2018-05-14T01:49:03.102Z,12.60
2018-05-14T01:51:30.139Z,12.60
2018-05-14T01:53:56.398Z,12.60
2018-05-14T01:56:22.630Z,12.60
2018-05-14T01:58:49.089Z,12.70
2018-05-14T02:01:15.350Z,12.70
2018-05-14T02:03:41.839Z,12.60
2018-05-14T02:06:08.067Z,12.60
2018-05-14T02:08:34.341Z,12.60
2018-05-14T02:11:00.574Z,12.70
2018-05-14T02:13:26.828Z,12.70
2018-05-14T02:15:53.062Z,12.70
2018-05-14T02:18:19.337Z,12.70
2018-05-14T02:20:46.327Z,12.70
2018-05-14T02:23:12.630Z,12.70
2018-05-14T02:25:39.601Z,12.60
2018-05-14T02:28:06.419Z,12.60
2018-05-14T02:30:32.650Z,12.70
2018-05-14T02:32:59.174Z,12.60
2018-05-14T02:35:25.446Z,12.70
2018-05-14T02:37:52.059Z,12.70
2018-05-14T02:40:18.402Z,12.60
2018-05-14T02:42:45.057Z,12.60
2018-05-14T02:45:11.321Z,12.60
2018-05-14T02:47:37.575Z,12.50
2018-05-14T02:50:03.846Z,12.60
2018-05-14T02:52:30.089Z,12.60
2018-05-14T02:54:56.338Z,12.60
2018-05-14T02:57:22.984Z,12.60
2018-05-14T02:59:49.398Z,12.50
2018-05-14T03:02:15.667Z,12.60
2018-05-14T03:04:42.600Z,12.60
2018-05-14T03:07:08.838Z,12.60
2018-05-14T03:09:35.597Z,12.60
2018-05-14T03:12:01.869Z,12.60
2018-05-14T03:14:28.565Z,12.60
2018-05-14T03:16:54.823Z,12.60
2018-05-14T03:19:21.582Z,12.60
2018-05-14T03:21:47.858Z,12.50
2018-05-14T03:24:14.126Z,12.50
2018-05-14T03:26:40.435Z,12.60
2018-05-14T03:29:06.681Z,12.50
2018-05-14T03:31:32.937Z,12.50
2018-05-14T03:33:59.789Z,12.50
2018-05-14T03:36:26.070Z,12.50
2018-05-14T03:38:52.818Z,12.50
2018-05-14T03:41:19.078Z,12.50
2018-05-14T03:43:46.063Z,12.50
2018-05-14T03:46:13.105Z,12.40
2018-05-14T03:48:39.389Z,12.40
2018-05-14T03:51:06.637Z,12.40
2018-05-14T03:53:32.881Z,12.50
2018-05-14T03:55:59.143Z,12.50
2018-05-14T03:58:37.978Z,12.50
2018-05-14T04:01:13.588Z,12.50
2018-05-14T04:03:52.826Z,12.60
2018-05-14T04:06:30.118Z,12.60
2018-05-14T04:08:57.152Z,12.60
2018-05-14T04:11:24.302Z,12.60
2018-05-14T04:13:50.579Z,12.60
2018-05-14T04:16:16.890Z,12.60
2018-05-14T04:18:43.871Z,12.60
2018-05-14T04:21:10.268Z,12.60
2018-05-14T04:23:37.243Z,12.60
2018-05-14T04:26:03.485Z,12.60
2018-05-14T04:28:29.769Z,12.60
2018-05-14T04:30:56.574Z,12.60
2018-05-14T04:33:22.857Z,12.60
2018-05-14T04:35:49.450Z,12.60
2018-05-14T04:38:15.718Z,12.60
2018-05-14T04:40:42.913Z,12.60
2018-05-14T04:43:09.186Z,12.70
2018-05-14T04:45:35.790Z,12.70
2018-05-14T04:48:02.054Z,12.70
2018-05-14T04:50:29.048Z,12.80
2018-05-14T04:52:55.311Z,12.80
2018-05-14T04:55:22.963Z,12.90
2018-05-14T04:57:50.665Z,12.90
2018-05-14T05:00:16.923Z,12.90
2018-05-14T05:02:43.846Z,12.90
2018-05-14T05:05:10.098Z,12.90
2018-05-14T05:07:37.109Z,13.00
2018-05-14T05:10:03.402Z,13.00
2018-05-14T05:12:29.674Z,13.00
2018-05-14T05:14:56.170Z,13.00
2018-05-14T05:17:22.403Z,13.00
2018-05-14T05:19:48.726Z,13.00
2018-05-14T05:22:15.682Z,13.10
2018-05-14T05:24:41.966Z,13.00
2018-05-14T05:27:08.198Z,13.10
2018-05-14T05:29:34.698Z,13.10
2018-05-14T05:32:01.189Z,13.00
2018-05-14T05:34:27.694Z,13.10
2018-05-14T05:36:53.925Z,13.20
2018-05-14T05:39:20.191Z,13.20
2018-05-14T05:41:46.474Z,13.20
2018-05-14T05:44:12.747Z,13.20
2018-05-14T05:46:39.277Z,13.20
2018-05-14T05:49:05.739Z,13.20
2018-05-14T05:51:32.290Z,13.30
2018-05-14T05:53:58.563Z,13.30
2018-05-14T05:56:24.810Z,13.30
2018-05-14T05:58:51.085Z,13.40
2018-05-14T06:01:17.368Z,13.40
2018-05-14T06:03:44.095Z,13.60
2018-05-14T06:06:10.315Z,13.60
2018-05-14T06:08:39.551Z,13.60
2018-05-14T06:11:08.638Z,13.70
2018-05-14T06:13:35.271Z,13.70
2018-05-14T06:16:01.521Z,13.60
2018-05-14T06:18:28.285Z,13.70
2018-05-14T06:20:54.790Z,13.80
2018-05-14T06:23:21.022Z,13.80
2018-05-14T06:25:47.277Z,13.90
2018-05-14T06:28:13.518Z,13.90
2018-05-14T06:30:39.795Z,14.10
2018-05-14T06:33:06.021Z,14.00
2018-05-14T06:35:32.544Z,14.10
2018-05-14T06:37:58.738Z,14.20
2018-05-14T06:40:25.726Z,14.20
2018-05-14T06:42:52.277Z,14.20
2018-05-14T06:45:18.541Z,14.20
2018-05-14T06:47:44.761Z,14.30
2018-05-14T06:50:11.026Z,14.30
2018-05-14T06:52:37.261Z,14.30
2018-05-14T06:55:03.566Z,14.40
2018-05-14T06:57:29.810Z,14.40
2018-05-14T06:59:56.449Z,14.40
2018-05-14T07:02:22.674Z,14.50
2018-05-14T07:04:48.933Z,14.50
2018-05-14T07:07:15.470Z,14.60
2018-05-14T07:09:41.752Z,14.60
2018-05-14T07:12:08.025Z,14.70
2018-05-14T07:14:34.315Z,14.70
2018-05-14T07:17:01.317Z,14.80
2018-05-14T07:19:27.578Z,14.80
2018-05-14T07:21:53.870Z,14.80
2018-05-14T07:24:20.113Z,14.90
2018-05-14T07:26:47.243Z,15.00
2018-05-14T07:29:13.657Z,15.00
2018-05-14T07:31:39.917Z,14.90
2018-05-14T07:34:06.158Z,15.10
2018-05-14T07:36:32.422Z,15.00
2018-05-14T07:38:58.649Z,15.10
2018-05-14T07:41:25.359Z,15.10
2018-05-14T07:43:52.434Z,15.10
2018-05-14T07:46:18.817Z,15.10
2018-05-14T07:48:45.777Z,15.40
2018-05-14T07:51:12.078Z,15.40
2018-05-14T07:53:38.307Z,15.60
2018-05-14T07:56:04.574Z,15.70
2018-05-14T07:58:31.078Z,15.60
2018-05-14T08:00:57.382Z,15.70
2018-05-14T08:03:23.618Z,15.70
2018-05-14T08:05:49.953Z,15.80
2018-05-14T08:08:16.162Z,15.90
2018-05-14T08:10:42.625Z,16.00
2018-05-14T08:13:08.853Z,15.90
2018-05-14T08:15:35.082Z,15.80
2018-05-14T08:18:01.386Z,15.90
2018-05-14T08:20:27.638Z,16.00
2018-05-14T08:22:55.396Z,16.20
2018-05-14T08:25:21.623Z,16.20
2018-05-14T08:27:47.889Z,16.40
2018-05-14T08:30:14.122Z,16.40
2018-05-14T08:32:40.421Z,16.30
2018-05-14T08:35:06.706Z,16.40
2018-05-14T08:37:33.602Z,16.50
2018-05-14T08:39:59.826Z,16.60
2018-05-14T08:42:26.135Z,16.60
2018-05-14T08:44:52.881Z,16.50
2018-05-14T08:47:19.125Z,16.70
2018-05-14T08:49:45.438Z,16.80
2018-05-14T08:52:12.084Z,16.80
2018-05-14T08:54:38.357Z,16.80
2018-05-14T08:57:04.613Z,16.80
2018-05-14T08:59:31.459Z,16.80
2018-05-14T09:01:58.488Z,16.90
2018-05-14T09:04:25.141Z,16.90
2018-05-14T09:06:51.401Z,16.90
2018-05-14T09:09:17.623Z,16.80
2018-05-14T09:11:43.917Z,16.80
2018-05-14T09:14:10.510Z,17.10
2018-05-14T09:16:36.733Z,17.40
2018-05-14T09:19:02.999Z,17.70
2018-05-14T09:21:29.910Z,17.80
2018-05-14T09:23:56.166Z,17.80
2018-05-14T09:26:22.405Z,17.90
2018-05-14T09:28:48.650Z,17.90
2018-05-14T09:31:14.936Z,17.90
2018-05-14T09:33:41.157Z,17.90
2018-05-14T09:36:07.738Z,17.90
2018-05-14T09:38:33.995Z,18.00
2018-05-14T09:41:01.466Z,17.90
2018-05-14T09:43:27.725Z,17.80
2018-05-14T09:45:53.974Z,17.80
2018-05-14T09:48:20.599Z,17.90
2018-05-14T09:50:46.698Z,18.10
2018-05-14T09:53:12.962Z,18.30
2018-05-14T09:55:39.207Z,18.50
2018-05-14T09:58:05.485Z,18.50
2018-05-14T10:00:31.897Z,18.50
2018-05-14T10:02:58.146Z,18.70
2018-05-14T10:05:24.534Z,18.30
2018-05-14T10:07:50.767Z,18.20
2018-05-14T10:10:17.054Z,17.80
2018-05-14T10:12:43.806Z,17.80
2018-05-14T10:15:10.066Z,18.00
2018-05-14T10:17:36.306Z,17.90
2018-05-14T10:20:02.581Z,18.10
2018-05-14T10:22:28.829Z,18.10
2018-05-14T10:24:55.606Z,18.30
2018-05-14T10:27:21.870Z,18.40
2018-05-14T10:29:48.121Z,18.40
2018-05-14T10:32:14.757Z,18.50
2018-05-14T10:34:41.042Z,18.70
2018-05-14T10:37:07.293Z,18.90
2018-05-14T10:39:33.826Z,18.80
2018-05-14T10:42:00.138Z,19.00
2018-05-14T10:44:26.415Z,19.20
2018-05-14T10:46:52.692Z,19.50
2018-05-14T10:49:18.986Z,19.50
2018-05-14T10:51:45.414Z,19.70
2018-05-14T10:54:11.658Z,20.20
2018-05-14T10:56:38.590Z,20.30
2018-05-14T10:59:04.846Z,20.00
2018-05-14T11:01:31.109Z,19.90
2018-05-14T11:03:57.408Z,20.10
2018-05-14T11:06:23.670Z,19.90
2018-05-14T11:08:49.902Z,20.00
2018-05-14T11:11:16.179Z,19.70
2018-05-14T11:13:42.417Z,19.70
2018-05-14T11:16:08.814Z,20.10
2018-05-14T11:18:35.039Z,20.50
2018-05-14T11:21:01.383Z,20.70
2018-05-14T11:23:28.253Z,21.00
2018-05-14T11:25:54.522Z,21.30
2018-05-14T11:28:21.206Z,21.00
2018-05-14T11:30:47.665Z,21.10
2018-05-14T11:33:13.902Z,21.00
2018-05-14T11:35:40.169Z,20.80
2018-05-14T11:38:06.668Z,20.40
2018-05-14T11:40:32.922Z,20.50
2018-05-14T11:42:59.159Z,20.50
2018-05-14T11:45:26.030Z,20.50
2018-05-14T11:47:52.277Z,20.50
2018-05-14T11:50:18.509Z,20.80
2018-05-14T11:52:44.779Z,21.10
2018-05-14T11:55:11.766Z,20.70
2018-05-14T11:57:38.273Z,20.60
2018-05-14T12:00:04.555Z,20.50
2018-05-14T12:02:30.826Z,20.70
2018-05-14T12:04:57.129Z,21.20
2018-05-14T12:07:23.375Z,21.80
2018-05-14T12:09:49.603Z,21.70
2018-05-14T12:12:15.919Z,21.60
2018-05-14T12:14:42.163Z,22.10
2018-05-14T12:17:08.474Z,22.20
2018-05-14T12:19:34.713Z,22.60
2018-05-14T12:22:01.053Z,22.70
2018-05-14T12:24:27.846Z,22.70
2018-05-14T12:26:54.110Z,22.70
2018-05-14T12:29:20.369Z,22.80
2018-05-14T12:31:47.553Z,22.80
2018-05-14T12:34:13.782Z,22.80
2018-05-14T12:36:40.030Z,22.70
2018-05-14T12:39:06.298Z,22.60
2018-05-14T12:41:32.553Z,22.90
2018-05-14T12:43:59.542Z,23.00
2018-05-14T12:46:25.797Z,23.00
2018-05-14T12:48:52.158Z,23.20
2018-05-14T12:51:18.493Z,23.40
2018-05-14T12:53:46.361Z,24.00
2018-05-14T12:56:12.599Z,23.90
2018-05-14T12:58:39.602Z,24.80
2018-05-14T13:01:05.834Z,24.80
2018-05-14T13:03:32.099Z,24.90
2018-05-14T13:05:59.070Z,24.50
2018-05-14T13:08:25.617Z,24.50
2018-05-14T13:10:51.942Z,24.80
2018-05-14T13:13:18.205Z,25.30
2018-05-14T13:15:45.048Z,25.20
2018-05-14T13:18:11.799Z,25.30
2018-05-14T13:20:38.548Z,25.60
2018-05-14T13:23:05.230Z,25.90
2018-05-14T13:25:32.344Z,25.90
2018-05-14T13:27:58.577Z,26.50
2018-05-14T13:30:24.841Z,26.20
2018-05-14T13:32:51.085Z,26.50
2018-05-14T13:35:17.354Z,26.80
2018-05-14T13:37:43.613Z,26.50
2018-05-14T13:40:09.883Z,26.20
2018-05-14T13:42:36.198Z,26.70
2018-05-14T13:45:03.111Z,26.90
2018-05-14T13:47:29.363Z,26.60
2018-05-14T13:49:55.981Z,26.70
2018-05-14T13:52:22.291Z,26.90
2018-05-14T13:54:48.571Z,27.20
2018-05-14T13:57:16.116Z,29.00
2018-05-14T13:59:42.374Z,28.90
2018-05-14T14:02:08.854Z,30.60
2018-05-14T14:04:35.646Z,31.70
2018-05-14T14:07:01.913Z,32.30
2018-05-14T14:09:28.830Z,33.40
2018-05-14T14:11:55.086Z,33.60
2018-05-14T14:14:21.391Z,33.00
2018-05-14T14:16:48.090Z,33.50
2018-05-14T14:19:14.322Z,34.40
2018-05-14T14:21:40.605Z,33.70
2018-05-14T14:24:06.949Z,32.60
2018-05-14T14:26:33.162Z,31.20
2018-05-14T14:29:00.417Z,29.70
2018-05-14T14:31:27.362Z,27.90
2018-05-14T14:33:53.591Z,27.30
2018-05-14T14:36:20.696Z,26.90
2018-05-14T14:38:46.897Z,26.50
2018-05-14T14:41:13.182Z,26.10
2018-05-14T14:43:39.414Z,26.00
2018-05-14T14:46:06.222Z,26.20
2018-05-14T14:48:32.493Z,26.10
2018-05-14T14:50:58.759Z,26.10
2018-05-14T14:53:25.057Z,25.70
2018-05-14T14:55:51.654Z,25.30
2018-05-14T14:58:18.249Z,25.00
2018-05-14T15:00:44.526Z,24.60
2018-05-14T15:03:11.053Z,24.40
2018-05-14T15:05:37.780Z,24.20
2018-05-14T15:08:04.154Z,24.10
2018-05-14T15:10:30.422Z,24.10
2018-05-14T15:12:57.001Z,24.00
2018-05-14T15:15:23.566Z,24.00
2018-05-14T15:17:50.218Z,24.00
2018-05-14T15:20:16.676Z,24.20
2018-05-14T15:22:42.949Z,26.00
2018-05-14T15:25:09.918Z,29.00
2018-05-14T15:27:36.642Z,31.40
2018-05-14T15:30:02.893Z,33.60
2018-05-14T15:32:29.159Z,34.50
2018-05-14T15:34:55.427Z,33.40
2018-05-14T15:37:21.675Z,32.40
2018-05-14T15:39:47.918Z,33.50
2018-05-14T15:42:15.070Z,35.40
2018-05-14T15:44:41.495Z,37.30
2018-05-14T15:47:07.793Z,37.30
2018-05-14T15:49:34.390Z,37.70
2018-05-14T15:52:00.652Z,37.40
2018-05-14T15:54:26.906Z,35.30
2018-05-14T15:56:53.502Z,34.40
2018-05-14T15:59:19.743Z,32.60
2018-05-14T16:01:45.992Z,32.10
2018-05-14T16:04:13.185Z,31.60
2018-05-14T16:06:39.415Z,31.00
2018-05-14T16:09:07.097Z,30.10
2018-05-14T16:11:33.362Z,28.80
2018-05-14T16:14:00.073Z,28.20
2018-05-14T16:16:26.326Z,27.80
2018-05-14T16:18:53.211Z,27.10
2018-05-14T16:21:19.606Z,26.60
2018-05-14T16:23:45.880Z,26.20
2018-05-14T16:26:12.120Z,25.80
2018-05-14T16:28:38.673Z,25.70
2018-05-14T16:31:04.954Z,25.60
2018-05-14T16:33:31.218Z,25.40
2018-05-14T16:35:57.502Z,25.30
2018-05-14T16:38:23.819Z,25.10
2018-05-14T16:40:50.389Z,24.80
2018-05-14T16:43:16.634Z,24.60
2018-05-14T16:45:42.936Z,24.50
2018-05-14T16:48:09.191Z,24.40
2018-05-14T16:50:35.442Z,24.30
2018-05-14T16:53:02.220Z,24.20
2018-05-14T16:55:28.490Z,24.20
2018-05-14T16:57:54.795Z,24.10
2018-05-14T17:00:24.150Z,24.20
2018-05-14T17:02:51.517Z,24.10
2018-05-14T17:05:17.877Z,24.20
2018-05-14T17:07:44.201Z,24.20
2018-05-14T17:10:11.682Z,24.20
2018-05-14T17:12:37.901Z,24.20
2018-05-14T17:15:04.173Z,24.20
2018-05-14T17:17:45.437Z,24.20
2018-05-14T17:20:11.726Z,24.10
2018-05-14T17:22:38.113Z,24.00
2018-05-14T17:25:05.318Z,24.00
2018-05-14T17:27:31.657Z,24.00
2018-05-14T17:29:57.925Z,23.90
2018-05-14T17:32:24.171Z,24.00
2018-05-14T17:34:51.181Z,24.00
2018-05-14T17:37:18.667Z,24.00
2018-05-14T17:39:45.642Z,24.00
2018-05-14T17:42:12.062Z,24.10
2018-05-14T17:44:39.051Z,23.90
2018-05-14T17:47:05.378Z,23.90
2018-05-14T17:49:32.293Z,23.80
2018-05-14T17:51:58.618Z,23.80
2018-05-14T17:54:24.954Z,23.70
2018-05-14T17:56:51.191Z,23.70
2018-05-14T17:59:17.490Z,23.60
2018-05-14T18:01:43.774Z,23.50
2018-05-14T18:04:10.029Z,23.40
2018-05-14T18:06:36.543Z,23.40
2018-05-14T18:09:02.833Z,23.20
2018-05-14T18:11:29.090Z,23.10
2018-05-14T18:13:55.547Z,23.10
2018-05-14T18:16:21.828Z,23.00
2018-05-14T18:18:48.066Z,22.90
2018-05-14T18:21:14.358Z,22.80
2018-05-14T18:23:46.714Z,22.60
2018-05-14T18:26:16.329Z,22.50
2018-05-14T18:28:42.605Z,22.50
2018-05-14T18:31:15.190Z,22.50
2018-05-14T18:33:41.456Z,22.40
2018-05-14T18:36:07.905Z,22.40
2018-05-14T18:38:34.165Z,22.30
2018-05-14T18:41:00.419Z,22.30
2018-05-14T18:43:26.672Z,22.30
2018-05-14T18:45:52.931Z,22.30
2018-05-14T18:48:19.530Z,22.10
2018-05-14T18:50:45.775Z,22.00
2018-05-14T18:53:12.061Z,22.00
2018-05-14T18:55:38.501Z,21.90
2018-05-14T18:58:04.765Z,21.90
2018-05-14T19:00:30.994Z,21.80
2018-05-14T19:02:57.623Z,21.70
2018-05-14T19:05:23.973Z,21.60
2018-05-14T19:07:50.337Z,21.50
2018-05-14T19:10:22.577Z,21.50
2018-05-14T19:12:49.654Z,21.30
2018-05-14T19:15:21.995Z,21.20
2018-05-14T19:17:54.729Z,21.10
2018-05-14T19:20:21.727Z,21.00
2018-05-14T19:22:54.172Z,21.00
2018-05-14T19:25:20.413Z,20.90
2018-05-14T19:27:52.606Z,20.90
2018-05-14T19:30:19.578Z,20.80
2018-05-14T19:32:46.080Z,20.80
2018-05-14T19:35:19.078Z,20.70
2018-05-14T19:37:45.334Z,20.60
2018-05-14T19:40:17.876Z,20.60
2018-05-14T19:42:44.160Z,20.50
2018-05-14T19:45:10.410Z,20.50
2018-05-14T19:47:36.894Z,20.40
2018-05-14T19:50:03.237Z,20.40
2018-05-14T19:52:29.462Z,20.30
2018-05-14T19:54:55.733Z,20.30
2018-05-14T19:57:21.988Z,20.40
2018-05-14T19:59:49.023Z,20.30
2018-05-14T20:02:15.327Z,20.30
2018-05-14T20:04:41.731Z,20.30
2018-05-14T20:07:08.710Z,20.30
2018-05-14T20:09:35.136Z,20.20
2018-05-14T20:12:01.430Z,20.20
2018-05-14T20:14:28.430Z,20.20
2018-05-14T20:16:54.702Z,20.20
2018-05-14T20:19:21.323Z,20.10
2018-05-14T20:21:47.648Z,20.10
2018-05-14T20:24:13.930Z,20.10
2018-05-14T20:26:40.226Z,20.10
2018-05-14T20:29:06.574Z,20.00
2018-05-14T20:31:33.234Z,20.00
2018-05-14T20:33:59.550Z,19.90
2018-05-14T20:36:26.338Z,19.90
2018-05-14T20:38:53.201Z,19.90
2018-05-14T20:41:19.975Z,19.80
2018-05-14T20:43:46.209Z,19.80
2018-05-14T20:46:12.557Z,19.70
2018-05-14T20:48:38.813Z,19.70
2018-05-14T20:51:05.148Z,19.70
2018-05-14T20:53:32.057Z,19.60
2018-05-14T20:55:58.391Z,19.60
2018-05-14T20:58:26.365Z,19.60
2018-05-14T21:00:53.119Z,19.70
2018-05-14T21:03:19.394Z,19.70
2018-05-14T21:05:45.737Z,19.70
2018-05-14T21:08:13.125Z,19.70
2018-05-14T21:10:40.662Z,19.60
2018-05-14T21:13:06.945Z,19.60
2018-05-14T21:15:33.655Z,19.70
2018-05-14T21:17:59.903Z,19.60
2018-05-14T21:20:27.146Z,19.60
2018-05-14T21:22:53.598Z,19.60
2018-05-14T21:25:20.073Z,19.60
2018-05-14T21:27:46.366Z,19.60
2018-05-14T21:30:13.305Z,19.50
2018-05-14T21:32:39.550Z,19.40
2018-05-14T21:35:06.527Z,19.30
2018-05-14T21:37:32.792Z,19.30
2018-05-14T21:39:59.125Z,19.30
2018-05-14T21:42:26.184Z,19.30
2018-05-14T21:44:52.434Z,19.30
2018-05-14T21:47:18.983Z,19.20
2018-05-14T21:49:45.262Z,19.20
2018-05-14T21:52:12.395Z,19.20
2018-05-14T21:54:38.641Z,19.20
2018-05-14T21:57:05.166Z,19.10
2018-05-14T21:59:31.450Z,19.00
2018-05-14T22:01:58.055Z,19.00
2018-05-14T22:04:24.253Z,18.90
2018-05-14T22:06:51.271Z,18.80
2018-05-14T22:09:17.517Z,18.80
2018-05-14T22:11:44.235Z,18.80
2018-05-14T22:14:10.551Z,18.90
2018-05-14T22:16:37.562Z,18.80
2018-05-14T22:19:03.813Z,18.80
2018-05-14T22:21:30.533Z,18.80
2018-05-14T22:23:56.781Z,18.70
2018-05-14T22:26:23.321Z,18.60
2018-05-14T22:28:49.580Z,18.50
2018-05-14T22:31:16.482Z,18.50
2018-05-14T22:33:42.733Z,18.50
2018-05-14T22:36:09.486Z,18.50
2018-05-14T22:38:35.738Z,18.50
2018-05-14T22:41:02.483Z,18.40
2018-05-14T22:43:32.998Z,18.30
2018-05-14T22:45:59.290Z,18.20
2018-05-14T22:48:26.013Z,18.20
2018-05-14T22:50:52.393Z,18.20
2018-05-14T22:53:18.875Z,18.20
2018-05-14T22:55:45.119Z,18.20
2018-05-14T22:58:11.562Z,18.10
2018-05-14T23:00:37.817Z,18.10
2018-05-14T23:03:04.127Z,18.10
2018-05-14T23:05:30.365Z,18.10
2018-05-14T23:07:56.631Z,18.10
2018-05-14T23:10:22.893Z,18.00
2018-05-14T23:12:49.277Z,18.00
2018-05-14T23:15:15.885Z,17.90
2018-05-14T23:17:42.722Z,17.90
2018-05-14T23:20:08.953Z,17.90
2018-05-14T23:22:40.209Z,17.90
2018-05-14T23:25:06.469Z,17.90
2018-05-14T23:27:33.199Z,17.80
2018-05-14T23:29:59.490Z,17.80
2018-05-14T23:32:26.502Z,17.70
2018-05-14T23:34:52.737Z,17.60
2018-05-14T23:37:19.244Z,17.60
2018-05-14T23:39:45.489Z,17.50
2018-05-14T23:42:12.379Z,17.40
2018-05-14T23:44:38.635Z,17.30
2018-05-14T23:47:04.902Z,17.20
2018-05-14T23:49:32.378Z,17.10
2018-05-14T23:51:58.638Z,17.00
2018-05-14T23:54:24.901Z,16.90
2018-05-14T23:56:51.153Z,16.70
2018-05-14T23:59:17.382Z,16.60
